Time;durP1;ratioP1;P1;durP2;ratioP2;P2;SDS_P1;SDS_P2;PMS_P1;PMS_P2;Temp;Humidity;BMP_temperature;BMP_pressure;BME280_temperature;BME280_humidity;BME280_pressure;Samples;Min_cycle;Max_cycle;Signal;HPM_P1;HPM_P2
2022/10/15 00:02:16;;;;;;;5.70;4.43;;;21.40;58.10;;;;;;5078279;28;20457;-79
2022/10/15 00:04:44;;;;;;;8.10;5.20;;;21.40;58.20;;;;;;5079137;28;20423;-78
2022/10/15 00:07:13;;;;;;;5.80;4.70;;;21.40;58.10;;;;;;5080816;28;20435;-78
2022/10/15 00:09:41;;;;;;;5.60;4.90;;;21.40;58.20;;;;;;5088767;28;20482;-79
2022/10/15 00:12:09;;;;;;;5.30;4.80;;;21.40;58.20;;;;;;5098356;28;20475;-78
2022/10/15 00:14:36;;;;;;;6.80;4.83;;;21.40;58.00;;;;;;5082366;28;20456;-79
2022/10/15 00:17:05;;;;;;;5.13;4.73;;;21.40;58.00;;;;;;5103212;28;20507;-80
2022/10/15 00:19:35;;;;;;;4.87;4.47;;;21.30;57.90;;;;;;5105925;28;20449;-80
2022/10/15 00:22:04;;;;;;;5.40;4.90;;;21.30;58.10;;;;;;5100068;28;20473;-80
2022/10/15 00:24:33;;;;;;;6.40;4.97;;;21.30;57.90;;;;;;5095888;28;20473;-80
2022/10/15 00:27:01;;;;;;;5.50;4.13;;;21.30;58.00;;;;;;5099299;28;20427;-79
2022/10/15 00:29:29;;;;;;;6.77;4.67;;;21.30;58.10;;;;;;5097211;28;20475;-79
2022/10/15 00:31:58;;;;;;;4.70;4.40;;;21.30;58.10;;;;;;5095193;28;20447;-80
2022/10/15 00:34:26;;;;;;;6.80;4.80;;;21.30;58.10;;;;;;5092583;28;20460;-78
2022/10/15 00:36:54;;;;;;;8.33;4.60;;;21.30;58.10;;;;;;5089547;28;20431;-80
2022/10/15 00:39:22;;;;;;;7.73;4.77;;;21.30;58.10;;;;;;5092599;28;20499;-79
2022/10/15 00:41:51;;;;;;;5.37;4.87;;;21.30;58.20;;;;;;5099121;28;20443;-81
2022/10/15 00:44:51;;;;;;;7.63;4.80;;;21.30;58.10;;;;;;5105690;28;20445;-80
2022/10/15 00:47:23;;;;;;;5.10;4.60;;;21.30;57.90;;;;;;5090562;28;20445;-80
2022/10/15 00:49:55;;;;;;;6.60;5.03;;;21.20;58.10;;;;;;5106846;28;20499;-79
2022/10/15 00:52:25;;;;;;;5.50;5.00;;;21.20;58.10;;;;;;5092450;28;20460;-78
2022/10/15 00:54:56;;;;;;;4.60;4.23;;;21.20;58.00;;;;;;5083559;28;20461;-79
2022/10/15 00:57:26;;;;;;;11.63;5.30;;;21.20;58.10;;;;;;5078349;28;20449;-80
2022/10/15 00:59:56;;;;;;;5.57;5.07;;;21.20;58.20;;;;;;5095095;28;21091;-78
2022/10/15 01:02:25;;;;;;;6.00;5.13;;;21.20;58.30;;;;;;5088161;28;20473;-81
2022/10/15 01:04:53;;;;;;;5.03;4.53;;;21.20;58.20;;;;;;5086981;28;20453;-80
2022/10/15 01:07:21;;;;;;;6.20;5.00;;;21.20;58.20;;;;;;5082043;28;20425;-79
2022/10/15 01:09:49;;;;;;;6.13;5.00;;;21.20;58.20;;;;;;5080241;28;20477;-79
2022/10/15 01:12:31;;;;;;;5.60;4.50;;;21.10;58.10;;;;;;5092351;28;20472;-79
2022/10/15 01:15:03;;;;;;;5.67;4.70;;;21.10;58.20;;;;;;5083872;28;20422;-79
2022/10/15 01:17:34;;;;;;;5.67;4.90;;;21.20;58.20;;;;;;5101557;28;20425;-80
2022/10/15 01:20:37;;;;;;;5.80;4.60;;;21.10;58.10;;;;;;5099950;28;20436;-80
2022/10/15 01:23:19;;;;;;;7.60;4.90;;;21.10;58.10;;;;;;5069986;28;20505;-80
2022/10/15 01:25:55;;;;;;;5.20;4.70;;;21.10;58.30;;;;;;5086893;28;20579;-80
2022/10/15 01:28:28;;;;;;;5.67;4.50;;;21.10;58.30;;;;;;5104260;28;20447;-79
2022/10/15 01:30:58;;;;;;;5.47;4.97;;;21.10;58.20;;;;;;5096778;28;20484;-80
2022/10/15 01:33:29;;;;;;;5.10;4.60;;;21.10;58.10;;;;;;5104477;28;20425;-80
2022/10/15 01:35:59;;;;;;;12.73;4.53;;;21.10;58.30;;;;;;5094276;28;20445;-81
2022/10/15 01:38:37;;;;;;;5.63;4.43;;;21.10;58.20;;;;;;5097568;28;20491;-80
2022/10/15 01:41:09;;;;;;;6.00;5.40;;;21.10;58.20;;;;;;5095700;28;20448;-79
2022/10/15 01:43:38;;;;;;;7.90;5.20;;;21.10;58.10;;;;;;5089239;28;20495;-80
2022/10/15 01:46:09;;;;;;;5.40;4.90;;;21.10;58.10;;;;;;5086900;28;20423;-80
2022/10/15 01:48:37;;;;;;;6.00;5.40;;;21.10;58.30;;;;;;5101488;28;20448;-79
2022/10/15 01:51:05;;;;;;;7.83;5.70;;;21.10;58.30;;;;;;5090913;28;20457;-80
2022/10/15 01:53:33;;;;;;;5.30;4.80;;;21.10;58.10;;;;;;5096757;28;20505;-80
2022/10/15 01:56:05;;;;;;;4.77;4.30;;;21.10;58.20;;;;;;5090286;28;20448;-80
2022/10/15 01:58:32;;;;;;;5.17;4.67;;;21.10;58.10;;;;;;5100611;28;20460;-80
2022/10/15 02:01:00;;;;;;;4.77;4.37;;;21.10;58.30;;;;;;5097990;28;20451;-80
2022/10/15 02:03:29;;;;;;;7.57;4.70;;;21.10;58.40;;;;;;5098480;28;20451;-81
2022/10/15 02:06:01;;;;;;;5.00;4.50;;;21.10;58.20;;;;;;5097664;28;20471;-80
2022/10/15 02:08:31;;;;;;;6.47;4.53;;;21.10;58.30;;;;;;5103551;28;20453;-79
2022/10/15 02:11:00;;;;;;;7.90;4.47;;;21.10;58.30;;;;;;5093953;28;20472;-79
2022/10/15 02:13:32;;;;;;;4.70;4.20;;;21.10;58.40;;;;;;5098523;28;20452;-81
2022/10/15 02:16:03;;;;;;;5.57;4.87;;;21.10;58.30;;;;;;5083993;28;20452;-79
2022/10/15 02:18:37;;;;;;;5.43;4.80;;;21.10;58.30;;;;;;5098167;28;20512;-79
2022/10/15 02:21:07;;;;;;;5.40;4.90;;;21.00;58.20;;;;;;5105995;28;20455;-78
2022/10/15 02:23:40;;;;;;;4.67;4.27;;;21.00;58.30;;;;;;5102330;28;20464;-80
2022/10/15 02:26:08;;;;;;;5.87;5.03;;;21.00;58.40;;;;;;5100907;28;20485;-79
2022/10/15 02:28:37;;;;;;;5.90;5.30;;;21.00;58.30;;;;;;5101305;28;20424;-79
2022/10/15 02:31:05;;;;;;;5.27;4.77;;;21.00;58.20;;;;;;5092618;28;20523;-80
2022/10/15 02:33:34;;;;;;;5.70;4.80;;;21.00;58.20;;;;;;5097497;28;20457;-79
2022/10/15 02:36:02;;;;;;;6.30;5.43;;;21.00;58.80;;;;;;5101311;28;20425;-79
2022/10/15 02:38:30;;;;;;;7.30;5.37;;;21.00;58.30;;;;;;5094039;28;20448;-80
2022/10/15 02:40:58;;;;;;;7.00;4.87;;;21.10;58.40;;;;;;5086722;28;20451;-79
2022/10/15 02:43:26;;;;;;;5.20;4.70;;;21.00;58.30;;;;;;5080436;28;20457;-79
2022/10/15 02:45:54;;;;;;;7.63;5.77;;;21.00;58.40;;;;;;5079567;28;20535;-79
2022/10/15 02:48:22;;;;;;;5.67;4.83;;;21.00;58.20;;;;;;5077501;28;21067;-81
2022/10/15 02:50:52;;;;;;;6.10;4.70;;;21.00;58.30;;;;;;5078041;28;20947;-80
2022/10/15 02:53:20;;;;;;;7.07;5.20;;;21.00;58.90;;;;;;5093269;28;20455;-80
2022/10/15 02:55:49;;;;;;;5.60;5.10;;;21.00;58.30;;;;;;5109083;28;20452;-81
2022/10/15 02:58:19;;;;;;;6.40;5.37;;;21.00;58.20;;;;;;5089695;28;20450;-82
2022/10/15 03:00:48;;;;;;;5.53;5.00;;;21.00;58.30;;;;;;5105044;28;20445;-83
2022/10/15 03:03:17;;;;;;;6.80;5.20;;;21.00;58.30;;;;;;5100913;28;20469;-82
2022/10/15 03:05:45;;;;;;;7.97;5.57;;;21.00;58.40;;;;;;5106076;28;20441;-81
2022/10/15 03:08:15;;;;;;;6.90;5.43;;;21.00;58.40;;;;;;5105422;28;20464;-82
2022/10/15 03:10:44;;;;;;;6.63;5.40;;;21.00;58.40;;;;;;5105122;28;20510;-80
2022/10/15 03:13:12;;;;;;;7.27;6.10;;;21.00;58.30;;;;;;5105735;28;20457;-81
2022/10/15 03:15:40;;;;;;;6.43;5.30;;;21.00;58.40;;;;;;5106851;28;20449;-82
2022/10/15 03:18:08;;;;;;;9.77;6.50;;;21.00;58.50;;;;;;5098520;28;20455;-81
2022/10/15 03:20:37;;;;;;;7.60;6.10;;;21.00;58.30;;;;;;5107399;28;20436;-81
2022/10/15 03:23:05;;;;;;;7.63;5.63;;;21.00;58.40;;;;;;5104311;28;20464;-82
2022/10/15 03:25:35;;;;;;;8.03;6.07;;;21.00;58.40;;;;;;5102704;28;20459;-82
2022/10/15 03:28:03;;;;;;;8.80;6.20;;;21.00;58.40;;;;;;5079485;28;20425;-81
2022/10/15 03:30:31;;;;;;;11.90;6.00;;;21.00;58.40;;;;;;5090054;28;20468;-81
2022/10/15 03:32:59;;;;;;;8.40;6.53;;;21.00;58.40;;;;;;5093552;28;20473;-80
2022/10/15 03:35:27;;;;;;;8.70;6.90;;;20.90;58.40;;;;;;5097607;28;20427;-81
2022/10/15 03:37:55;;;;;;;6.70;5.70;;;21.00;58.40;;;;;;5097441;28;20453;-80
2022/10/15 03:40:24;;;;;;;7.43;5.70;;;20.90;58.40;;;;;;5094480;28;20502;-82
2022/10/15 03:42:55;;;;;;;8.13;6.13;;;21.00;58.50;;;;;;5078519;28;20473;-81
2022/10/15 03:45:23;;;;;;;8.33;6.33;;;21.00;58.40;;;;;;5080710;28;20449;-81
2022/10/15 03:47:51;;;;;;;11.77;7.53;;;20.90;58.40;;;;;;5091870;28;20453;-81
2022/10/15 03:50:19;;;;;;;11.60;7.30;;;20.90;58.40;;;;;;5095390;28;20472;-81
2022/10/15 03:52:48;;;;;;;12.27;6.70;;;20.90;58.50;;;;;;5093511;28;20435;-80
2022/10/15 03:55:16;;;;;;;8.57;6.90;;;20.90;58.50;;;;;;5094450;28;20544;-79
2022/10/15 03:57:44;;;;;;;8.67;6.40;;;20.90;58.50;;;;;;5086531;28;20445;-81
2022/10/15 04:00:15;;;;;;;8.57;6.37;;;20.90;58.50;;;;;;5076120;28;20456;-81
2022/10/15 04:02:43;;;;;;;9.40;6.57;;;20.90;58.50;;;;;;5074563;28;20446;-81
2022/10/15 04:05:11;;;;;;;8.83;7.00;;;20.90;58.70;;;;;;5075384;28;20420;-80
2022/10/15 04:07:41;;;;;;;14.00;7.43;;;20.90;58.50;;;;;;5093247;28;20479;-80
2022/10/15 04:10:09;;;;;;;7.97;6.03;;;20.90;58.50;;;;;;5087931;28;20476;-80
2022/10/15 04:12:37;;;;;;;8.53;6.50;;;20.90;58.50;;;;;;5082157;28;20482;-81
2022/10/15 04:15:06;;;;;;;8.77;6.40;;;20.90;58.50;;;;;;5075958;28;20445;-80
2022/10/15 04:17:36;;;;;;;12.80;7.43;;;20.80;58.40;;;;;;5094692;28;20429;-80
2022/10/15 04:20:04;;;;;;;10.13;6.20;;;20.90;58.50;;;;;;5074416;28;20449;-80
2022/10/15 04:22:32;;;;;;;9.83;6.97;;;20.90;58.60;;;;;;5074764;28;20477;-80
2022/10/15 04:25:01;;;;;;;9.43;6.53;;;20.80;58.40;;;;;;5074445;28;20454;-80
2022/10/15 04:27:30;;;;;;;6.80;5.70;;;20.90;58.50;;;;;;5074272;28;20492;-79
2022/10/15 04:29:58;;;;;;;7.90;6.07;;;20.90;58.70;;;;;;5094983;28;20441;-80
2022/10/15 04:32:26;;;;;;;10.07;6.33;;;20.80;58.50;;;;;;5091913;28;20503;-80
2022/10/15 04:34:56;;;;;;;11.87;7.30;;;20.80;58.70;;;;;;5091678;28;20438;-81
2022/10/15 04:37:25;;;;;;;10.67;6.70;;;20.80;58.50;;;;;;5081199;28;20431;-80
2022/10/15 04:39:53;;;;;;;6.40;5.53;;;20.80;58.60;;;;;;5087521;28;20830;-82
2022/10/15 04:42:21;;;;;;;11.13;6.60;;;20.80;58.70;;;;;;5076687;28;20475;-82
2022/10/15 04:44:49;;;;;;;10.27;6.90;;;20.80;58.70;;;;;;5093246;28;20452;-79
2022/10/15 04:47:17;;;;;;;9.07;6.10;;;20.80;58.60;;;;;;5077068;28;20454;-79
2022/10/15 04:49:46;;;;;;;9.53;6.00;;;20.80;58.70;;;;;;5086286;28;20419;-79
2022/10/15 04:52:15;;;;;;;8.53;6.57;;;20.80;58.60;;;;;;5075028;28;20477;-81
2022/10/15 04:54:46;;;;;;;11.33;6.80;;;20.80;58.60;;;;;;5092641;28;20456;-80
2022/10/15 04:57:14;;;;;;;10.93;6.80;;;20.80;58.50;;;;;;5079708;28;20427;-80
2022/10/15 04:59:43;;;;;;;8.87;6.13;;;20.80;58.60;;;;;;5096589;28;20472;-79
2022/10/15 05:02:11;;;;;;;8.40;6.70;;;20.80;58.60;;;;;;5078822;28;20469;-80
2022/10/15 05:04:40;;;;;;;8.20;6.20;;;20.80;58.60;;;;;;5091500;28;20433;-80
2022/10/15 05:07:08;;;;;;;7.00;5.60;;;20.80;58.60;;;;;;5082346;28;20452;-79
2022/10/15 05:09:38;;;;;;;11.17;6.67;;;20.80;58.70;;;;;;5093757;28;20511;-80
2022/10/15 05:12:13;;;;;;;9.40;6.27;;;20.80;58.70;;;;;;5094311;28;20464;-80
2022/10/15 05:14:42;;;;;;;9.33;6.60;;;20.80;58.70;;;;;;5087082;28;20449;-80
2022/10/15 05:17:10;;;;;;;10.40;7.00;;;20.70;58.50;;;;;;5093960;28;20998;-79
2022/10/15 05:19:39;;;;;;;10.80;7.30;;;20.70;58.60;;;;;;5094142;28;20668;-78
2022/10/15 05:22:07;;;;;;;9.57;6.73;;;20.70;58.60;;;;;;5075751;28;20531;-78
2022/10/15 05:24:35;;;;;;;9.77;7.00;;;20.70;58.70;;;;;;5074313;28;20445;-80
2022/10/15 05:27:05;;;;;;;9.40;6.70;;;20.70;58.60;;;;;;5073280;28;20488;-80
2022/10/15 05:29:33;;;;;;;11.73;7.40;;;20.70;58.70;;;;;;5080065;28;20459;-80
2022/10/15 05:32:01;;;;;;;11.10;7.50;;;20.70;58.60;;;;;;5083455;28;20473;-80
2022/10/15 05:34:29;;;;;;;14.30;7.33;;;20.70;58.70;;;;;;5094100;28;20425;-80
2022/10/15 05:36:58;;;;;;;10.90;7.07;;;20.60;58.60;;;;;;5083656;28;20451;-82
2022/10/15 05:39:26;;;;;;;12.20;7.40;;;20.60;58.70;;;;;;5073447;28;20421;-79
2022/10/15 05:41:54;;;;;;;10.27;7.50;;;20.70;58.80;;;;;;5073465;28;20454;-81
2022/10/15 05:44:23;;;;;;;13.60;8.50;;;20.60;58.70;;;;;;5090156;28;20441;-81
2022/10/15 05:46:51;;;;;;;10.90;7.10;;;20.60;58.80;;;;;;5090365;28;20804;-81
2022/10/15 05:49:19;;;;;;;11.23;6.97;;;20.60;58.60;;;;;;5089854;28;20427;-80
2022/10/15 05:51:47;;;;;;;9.90;6.83;;;20.60;58.80;;;;;;5092605;28;20476;-80
2022/10/15 05:54:15;;;;;;;9.77;7.10;;;20.60;58.80;;;;;;5092927;28;20460;-79
2022/10/15 05:56:43;;;;;;;9.10;6.70;;;20.60;58.70;;;;;;5093057;28;20480;-81
2022/10/15 05:59:10;;;;;;;12.10;7.03;;;20.60;59.10;;;;;;5094938;28;20443;-80
2022/10/15 06:01:40;;;;;;;11.00;7.13;;;20.60;58.70;;;;;;5102691;28;20464;-80
2022/10/15 06:04:07;;;;;;;8.90;6.97;;;20.60;58.60;;;;;;5093878;28;20452;-80
2022/10/15 06:06:35;;;;;;;8.57;6.40;;;20.60;58.80;;;;;;5105045;28;20517;-80
2022/10/15 06:09:06;;;;;;;7.67;6.13;;;20.60;58.80;;;;;;5101664;28;20455;-81
2022/10/15 06:11:35;;;;;;;9.20;6.37;;;20.60;58.90;;;;;;5111220;28;20527;-80
2022/10/15 06:14:03;;;;;;;10.73;6.10;;;20.60;58.90;;;;;;5086538;28;20445;-79
2022/10/15 06:16:32;;;;;;;9.37;7.03;;;20.60;58.80;;;;;;5086654;28;20458;-80
2022/10/15 06:19:01;;;;;;;8.70;6.90;;;20.50;58.70;;;;;;5108145;28;20464;-82
2022/10/15 06:21:29;;;;;;;9.17;6.60;;;20.60;58.70;;;;;;5110623;28;20439;-82
2022/10/15 06:23:57;;;;;;;11.27;7.53;;;20.60;58.90;;;;;;5107384;28;20433;-80
2022/10/15 06:26:25;;;;;;;7.87;6.53;;;20.60;58.90;;;;;;5113268;28;20399;-79
2022/10/15 06:28:54;;;;;;;8.00;6.20;;;20.50;58.70;;;;;;5110663;28;20428;-81
2022/10/15 06:31:22;;;;;;;8.57;6.53;;;20.60;58.90;;;;;;5115213;28;20460;-80
2022/10/15 06:33:50;;;;;;;59.30;27.30;;;20.60;58.90;;;;;;5114269;28;20475;-80
2022/10/15 06:36:20;;;;;;;62.97;30.27;;;19.30;60.90;;;;;;5090327;28;20940;-80
2022/10/15 06:38:48;;;;;;;73.57;33.10;;;18.00;66.00;;;;;;5089145;28;20437;-81
2022/10/15 06:41:16;;;;;;;75.43;32.70;;;17.50;70.00;;;;;;5095035;28;20468;-81
2022/10/15 06:43:44;;;;;;;77.57;32.77;;;16.90;73.10;;;;;;5100827;28;20459;-81
2022/10/15 06:46:12;;;;;;;66.83;29.20;;;16.40;79.40;;;;;;5104470;28;20920;-79
2022/10/15 06:48:40;;;;;;;77.00;32.33;;;16.50;82.90;;;;;;5096097;28;20455;-81
2022/10/15 06:51:08;;;;;;;72.03;31.53;;;16.40;84.40;;;;;;5090398;28;20447;-81
2022/10/15 06:53:39;;;;;;;84.10;34.13;;;16.40;85.60;;;;;;5103253;28;20540;-80
2022/10/15 06:56:08;;;;;;;65.90;30.70;;;16.00;89.20;;;;;;5106088;28;20456;-81
2022/10/15 06:58:36;;;;;;;79.77;33.50;;;16.00;93.30;;;;;;5097798;28;20449;-81
2022/10/15 07:01:06;;;;;;;73.27;31.07;;;15.90;94.30;;;;;;5097780;28;20465;-79
2022/10/15 07:03:35;;;;;;;73.93;28.50;;;15.40;98.80;;;;;;5088363;28;20453;-79
2022/10/15 07:06:03;;;;;;;65.60;28.87;;;16.30;99.90;;;;;;5088171;28;20440;-82
2022/10/15 07:08:32;;;;;;;61.50;27.67;;;17.20;99.50;;;;;;5098684;28;20955;-80
2022/10/15 07:11:02;;;;;;;58.90;26.80;;;17.80;96.90;;;;;;5099369;28;20439;-80
2022/10/15 07:13:31;;;;;;;54.10;26.73;;;18.30;94.10;;;;;;5093209;28;20471;-80
2022/10/15 07:15:59;;;;;;;50.40;24.27;;;18.70;91.90;;;;;;5088201;28;20454;-80
2022/10/15 07:18:27;;;;;;;49.53;24.47;;;19.10;90.30;;;;;;5077932;28;20441;-80
2022/10/15 07:20:56;;;;;;;50.07;23.33;;;19.30;87.30;;;;;;5079144;28;20469;-81
2022/10/15 07:23:24;;;;;;;50.07;23.60;;;19.50;85.40;;;;;;5088360;28;20501;-80
2022/10/15 07:25:54;;;;;;;42.10;21.47;;;19.80;83.10;;;;;;5097550;28;20435;-81
2022/10/15 07:28:24;;;;;;;40.47;20.87;;;19.90;81.10;;;;;;5099121;28;20448;-80
2022/10/15 07:30:52;;;;;;;44.40;22.03;;;20.10;79.20;;;;;;5098713;28;20468;-81
2022/10/15 07:33:21;;;;;;;38.67;20.50;;;20.20;78.10;;;;;;5084493;28;20523;-81
2022/10/15 07:35:49;;;;;;;38.13;20.00;;;20.30;76.80;;;;;;5087060;28;20448;-81
2022/10/15 07:38:17;;;;;;;36.23;18.50;;;20.50;75.70;;;;;;5098831;28;20452;-82
2022/10/15 07:40:46;;;;;;;32.57;17.90;;;20.50;74.80;;;;;;5079051;28;20495;-81
2022/10/15 07:43:14;;;;;;;33.57;18.30;;;20.70;74.00;;;;;;5094039;28;20430;-82
2022/10/15 07:45:47;;;;;;;33.70;19.30;;;20.70;73.00;;;;;;5085580;28;20448;-82
2022/10/15 07:48:16;;;;;;;33.17;17.60;;;20.80;72.70;;;;;;5088214;28;20448;-79
2022/10/15 07:50:44;;;;;;;33.20;17.57;;;20.90;71.90;;;;;;5082467;28;20455;-81
2022/10/15 07:53:12;;;;;;;29.40;17.03;;;20.90;71.20;;;;;;5090050;28;20482;-80
2022/10/15 07:55:40;;;;;;;27.27;16.20;;;21.00;70.70;;;;;;5098663;28;20459;-81
2022/10/15 07:58:08;;;;;;;26.60;15.37;;;21.10;70.30;;;;;;5098841;28;20440;-82
2022/10/15 08:00:35;;;;;;;25.93;14.27;;;21.10;69.90;;;;;;5089496;28;20431;-81
2022/10/15 08:03:05;;;;;;;26.80;14.10;;;21.20;69.90;;;;;;5098953;28;20506;-81
2022/10/15 08:05:33;;;;;;;21.73;14.03;;;21.30;69.30;;;;;;5097428;28;20458;-80
2022/10/15 08:08:03;;;;;;;23.33;13.87;;;21.40;69.00;;;;;;5099127;28;20448;-81
2022/10/15 08:10:35;;;;;;;22.27;13.40;;;21.50;68.80;;;;;;5092622;28;20453;-80
2022/10/15 08:13:03;;;;;;;19.60;12.53;;;21.50;68.50;;;;;;5092753;28;20470;-82
2022/10/15 08:15:31;;;;;;;20.17;12.33;;;21.60;68.00;;;;;;5083311;28;20431;-84
2022/10/15 08:17:59;;;;;;;19.70;11.90;;;21.80;68.00;;;;;;5100805;28;20417;-84
2022/10/15 08:20:29;;;;;;;20.03;11.90;;;21.80;67.70;;;;;;5099439;28;20455;-85
2022/10/15 08:22:57;;;;;;;17.63;11.90;;;22.00;67.50;;;;;;5092395;28;20461;-85
2022/10/15 08:25:25;;;;;;;20.10;11.43;;;22.20;67.40;;;;;;5093330;28;20457;-85
2022/10/15 08:27:53;;;;;;;15.37;10.20;;;22.30;66.50;;;;;;5094455;28;20456;-82
2022/10/15 08:30:21;;;;;;;22.90;10.27;;;22.50;66.30;;;;;;5078575;28;20453;-85
2022/10/15 08:32:49;;;;;;;17.00;10.27;;;22.60;66.00;;;;;;5088855;28;20479;-86
2022/10/15 08:35:17;;;;;;;17.90;10.53;;;22.60;65.40;;;;;;5091877;28;20475;-83
2022/10/15 08:37:48;;;;;;;13.83;9.63;;;22.60;64.80;;;;;;5096380;28;20465;-85
2022/10/15 08:40:24;;;;;;;12.23;9.07;;;22.70;64.90;;;;;;5100704;28;20459;-85
2022/10/15 08:43:00;;;;;;;15.80;9.47;;;22.80;64.90;;;;;;5104356;28;20572;-83
2022/10/15 08:45:36;;;;;;;17.10;9.37;;;22.80;64.50;;;;;;5102008;28;20456;-85
2022/10/15 08:48:20;;;;;;;16.80;9.70;;;22.80;64.20;;;;;;5100088;28;20448;-82
2022/10/15 08:50:52;;;;;;;18.17;9.90;;;22.80;64.30;;;;;;5103724;28;20430;-84
2022/10/15 08:53:23;;;;;;;13.70;9.00;;;22.80;64.30;;;;;;5104789;28;20503;-84
2022/10/15 08:55:55;;;;;;;14.23;8.73;;;22.80;64.10;;;;;;5104008;28;20480;-84
2022/10/15 08:58:25;;;;;;;11.90;8.07;;;22.80;64.10;;;;;;5105651;28;20488;-82
2022/10/15 09:00:56;;;;;;;13.03;8.40;;;22.70;64.30;;;;;;5106097;28;20471;-85
2022/10/15 09:03:30;;;;;;;21.07;8.50;;;22.80;64.20;;;;;;5105436;28;20411;-84
2022/10/15 09:06:09;;;;;;;12.93;8.97;;;22.80;63.90;;;;;;5108657;28;20425;-86
2022/10/15 09:08:48;;;;;;;15.77;9.30;;;22.80;64.10;;;;;;5098306;28;20455;-82
2022/10/15 09:14:49;;;;;;;13.90;9.13;;;22.80;64.10;;;;;;5096420;28;20472;-83
2022/10/15 09:20:59;;;;;;;16.57;8.83;;;22.80;63.80;;;;;;5092722;28;20427;-82
2022/10/15 09:24:02;;;;;;;13.60;8.50;;;22.80;63.60;;;;;;5086856;28;20502;-84
2022/10/15 09:30:54;;;;;;;12.73;8.37;;;22.80;63.50;;;;;;5105206;28;20415;-84
2022/10/15 09:33:57;;;;;;;13.83;8.87;;;22.80;64.50;;;;;;5104336;28;20460;-85
2022/10/15 09:36:58;;;;;;;18.13;9.07;;;23.00;64.20;;;;;;5100319;28;20539;-85
2022/10/15 09:40:10;;;;;;;12.30;8.10;;;23.30;64.10;;;;;;5080081;28;20450;-84
2022/10/15 09:42:54;;;;;;;11.40;8.20;;;23.70;64.10;;;;;;5076944;28;20534;-85
2022/10/15 09:45:33;;;;;;;12.37;7.80;;;24.00;63.80;;;;;;5084225;28;20478;-85
2022/10/15 09:48:21;;;;;;;11.50;8.00;;;24.30;63.50;;;;;;5086782;28;20468;-85
2022/10/15 09:51:03;;;;;;;11.30;8.20;;;24.60;63.40;;;;;;5090006;28;20432;-83
2022/10/15 09:53:51;;;;;;;9.73;7.60;;;24.90;63.00;;;;;;5090092;28;20490;-83
2022/10/15 09:56:38;;;;;;;10.80;8.40;;;25.20;62.80;;;;;;5100296;28;20430;-84
2022/10/15 09:59:32;;;;;;;16.23;8.50;;;25.50;62.50;;;;;;5109372;28;20426;-84
2022/10/15 10:02:47;;;;;;;8.97;8.07;;;25.70;62.20;;;;;;5109695;28;20465;-84
2022/10/15 10:05:31;;;;;;;16.80;7.33;;;26.00;61.90;;;;;;5104129;28;20415;-84
2022/10/15 10:08:25;;;;;;;11.97;8.17;;;26.30;61.40;;;;;;5109933;28;20466;-84
2022/10/15 10:17:27;;;;;;;8.70;6.97;;;27.00;60.10;;;;;;5107948;28;20445;-83
2022/10/15 10:20:19;;;;;;;10.93;7.10;;;27.20;59.80;;;;;;5085504;28;20438;-84
2022/10/15 10:23:05;;;;;;;9.50;6.63;;;27.40;59.30;;;;;;5109745;23;20492;-84
2022/10/15 10:25:44;;;;;;;7.50;6.80;;;27.60;59.20;;;;;;5048844;28;20435;-84
2022/10/15 10:28:40;;;;;;;10.67;5.60;;;27.90;58.60;;;;;;5048053;28;20435;-83
2022/10/15 10:31:55;;;;;;;11.57;7.20;;;28.20;58.30;;;;;;5047033;28;20566;-84
2022/10/15 10:34:54;;;;;;;7.63;6.37;;;28.60;57.90;;;;;;5046531;28;20478;-83
2022/10/15 10:37:58;;;;;;;8.13;6.40;;;28.90;57.20;;;;;;5046763;28;20440;-84
2022/10/15 10:41:12;;;;;;;8.20;6.67;;;28.90;56.20;;;;;;5047421;28;20458;-84
2022/10/15 10:43:57;;;;;;;6.43;5.83;;;28.80;55.90;;;;;;5046875;28;20439;-84
2022/10/15 10:46:47;;;;;;;6.40;5.80;;;28.70;55.70;;;;;;5046785;28;20455;-83
2022/10/15 10:50:19;;;;;;;6.60;5.80;;;28.80;55.70;;;;;;5042876;28;20466;-84
2022/10/15 10:52:58;;;;;;;6.07;5.50;;;28.80;55.50;;;;;;5046528;28;20468;-84
2022/10/15 10:59:11;;;;;;;6.73;6.03;;;28.30;55.30;;;;;;5044835;28;20432;-84
2022/10/15 11:01:57;;;;;;;7.10;6.27;;;28.10;55.40;;;;;;5046184;28;20442;-84
2022/10/15 11:07:28;;;;;;;9.57;6.40;;;27.70;55.80;;;;;;5044952;28;20444;-83
2022/10/15 11:10:37;;;;;;;6.70;6.00;;;27.60;56.30;;;;;;5043461;28;20439;-84
2022/10/15 11:13:26;;;;;;;7.10;5.90;;;27.50;56.00;;;;;;5045403;28;20475;-84
2022/10/15 11:16:01;;;;;;;6.43;5.20;;;27.40;56.10;;;;;;5045360;28;20489;-84
2022/10/15 11:18:46;;;;;;;8.20;6.20;;;27.70;55.50;;;;;;5046146;28;20451;-84
2022/10/15 11:21:30;;;;;;;5.90;5.27;;;27.80;55.30;;;;;;5044268;28;20991;-84
2022/10/15 11:24:24;;;;;;;6.47;5.77;;;28.30;55.10;;;;;;5039875;28;20407;-83
2022/10/15 11:27:27;;;;;;;6.07;5.30;;;28.10;53.90;;;;;;5046046;28;20446;-84
2022/10/15 11:30:10;;;;;;;6.67;5.67;;;27.70;53.90;;;;;;5043178;28;20467;-82
2022/10/15 11:32:57;;;;;;;5.70;5.20;;;27.50;54.50;;;;;;5041270;28;20467;-83
2022/10/15 11:35:56;;;;;;;6.47;5.90;;;27.30;54.60;;;;;;5042455;28;20442;-83
2022/10/15 11:38:43;;;;;;;5.63;5.13;;;27.10;54.70;;;;;;5042378;28;20433;-82
2022/10/15 11:41:32;;;;;;;6.50;5.80;;;27.00;55.00;;;;;;5041976;28;20559;-82
2022/10/15 11:44:43;;;;;;;7.00;5.60;;;26.80;55.30;;;;;;5041929;28;20454;-83
2022/10/15 11:50:19;;;;;;;6.13;5.30;;;26.50;55.60;;;;;;5040747;28;20430;-83
2022/10/15 11:52:55;;;;;;;5.40;5.00;;;26.40;55.60;;;;;;5040773;28;20447;-83
2022/10/15 11:55:24;;;;;;;5.37;4.87;;;26.30;55.60;;;;;;5041781;28;20951;-83
2022/10/15 11:57:54;;;;;;;5.50;5.00;;;26.20;55.90;;;;;;5040168;28;20497;-83
2022/10/15 12:00:30;;;;;;;5.33;4.80;;;26.20;55.80;;;;;;5041512;28;20448;-83
2022/10/15 12:03:03;;;;;;;5.93;5.33;;;26.30;56.10;;;;;;5040724;28;20438;-82
2022/10/15 12:05:33;;;;;;;6.30;5.70;;;26.40;55.90;;;;;;5040684;28;20443;-83
2022/10/15 12:08:02;;;;;;;6.40;5.23;;;26.60;55.90;;;;;;5041485;28;20450;-83
2022/10/15 12:10:35;;;;;;;6.93;5.23;;;26.90;55.60;;;;;;5038923;28;20474;-80
2022/10/15 12:13:08;;;;;;;5.73;5.23;;;28.00;55.50;;;;;;5042106;28;20464;-83
2022/10/15 12:15:40;;;;;;;5.20;4.80;;;30.00;51.70;;;;;;5028920;28;20517;-84
2022/10/15 12:18:14;;;;;;;5.70;5.23;;;31.40;48.30;;;;;;5020698;28;20444;-85
2022/10/15 12:20:43;;;;;;;5.37;4.50;;;32.00;44.70;;;;;;5020207;28;20448;-81
2022/10/15 12:23:23;;;;;;;4.40;4.10;;;31.60;45.20;;;;;;5038662;28;20481;-82
2022/10/15 12:25:51;;;;;;;6.47;4.83;;;32.10;44.90;;;;;;5038047;28;20945;-84
2022/10/15 12:28:22;;;;;;;5.37;4.87;;;32.60;44.40;;;;;;5041327;28;20502;-84
2022/10/15 12:30:55;;;;;;;5.13;4.80;;;32.50;45.00;;;;;;5036784;28;20439;-83
2022/10/15 12:33:29;;;;;;;7.77;5.37;;;32.10;43.10;;;;;;5032825;28;20474;-83
2022/10/15 12:35:57;;;;;;;5.60;5.10;;;31.30;44.50;;;;;;5036105;28;20463;-83
2022/10/15 12:38:28;;;;;;;6.13;5.63;;;30.50;45.50;;;;;;5037480;28;20471;-83
2022/10/15 12:41:01;;;;;;;6.33;5.57;;;29.90;46.70;;;;;;5038887;28;20463;-84
2022/10/15 12:43:30;;;;;;;7.10;6.50;;;29.30;47.60;;;;;;5025129;28;20451;-83
2022/10/15 12:45:59;;;;;;;6.77;6.07;;;29.00;48.50;;;;;;5031664;28;20523;-82
2022/10/15 12:48:36;;;;;;;7.27;6.57;;;28.60;49.00;;;;;;5031473;28;20466;-83
2022/10/15 12:51:39;;;;;;;8.10;6.57;;;28.30;49.80;;;;;;5028109;28;20439;-83
2022/10/15 12:54:32;;;;;;;8.93;7.60;;;28.00;50.30;;;;;;5018418;28;21017;-82
2022/10/15 12:57:00;;;;;;;8.00;7.20;;;27.80;50.90;;;;;;5024012;28;20452;-83
2022/10/15 12:59:30;;;;;;;7.60;6.87;;;27.60;50.90;;;;;;5040078;28;20443;-83
2022/10/15 13:01:59;;;;;;;8.57;7.70;;;27.40;51.40;;;;;;5055786;28;20469;-84
2022/10/15 13:04:38;;;;;;;9.97;7.93;;;27.30;51.70;;;;;;5040597;28;20434;-83
2022/10/15 13:07:06;;;;;;;8.67;7.77;;;27.20;52.00;;;;;;5040262;28;20447;-83
2022/10/15 13:09:34;;;;;;;9.17;8.13;;;27.10;52.30;;;;;;5039246;28;20461;-84
2022/10/15 13:12:02;;;;;;;7.93;7.20;;;27.00;52.30;;;;;;5039337;28;20503;-83
2022/10/15 13:14:35;;;;;;;8.37;7.47;;;26.80;52.40;;;;;;5020888;28;20433;-84
2022/10/15 13:17:05;;;;;;;8.90;8.00;;;26.70;52.80;;;;;;5020578;28;20439;-84
2022/10/15 13:19:34;;;;;;;8.67;7.87;;;26.60;53.00;;;;;;5026666;28;20782;-83
2022/10/15 13:22:04;;;;;;;10.00;8.10;;;26.40;53.20;;;;;;5034376;28;20482;-83
2022/10/15 13:24:39;;;;;;;7.87;7.17;;;26.30;53.50;;;;;;5029740;28;20470;-82
2022/10/15 13:27:14;;;;;;;9.43;8.47;;;26.20;53.80;;;;;;5038551;28;20834;-83
2022/10/15 13:29:55;;;;;;;9.27;8.20;;;26.20;53.90;;;;;;5030363;28;20917;-83
2022/10/15 13:32:23;;;;;;;9.23;8.10;;;26.10;54.10;;;;;;5035980;28;20454;-82
2022/10/15 13:34:51;;;;;;;10.50;8.73;;;26.00;54.20;;;;;;5033357;28;20539;-84
2022/10/15 13:37:24;;;;;;;10.33;8.13;;;25.90;54.40;;;;;;5034592;28;20459;-84
2022/10/15 13:39:52;;;;;;;10.70;8.40;;;25.80;54.50;;;;;;5034525;28;20458;-85